createdAt,value
2023-03-29T00:01:02.618Z,2.95
2023-03-29T00:06:03.304Z,5.88
2023-03-29T00:11:00.907Z,3.63
2023-03-29T00:15:54.305Z,3.95
2023-03-29T00:20:48.108Z,2.60
2023-03-29T00:25:46.405Z,4.53
2023-03-29T00:30:40.568Z,3.30
2023-03-29T00:35:34.595Z,4.55
2023-03-29T00:40:27.716Z,2.70
2023-03-29T00:45:26.138Z,2.58
2023-03-29T00:50:54.930Z,3.50
2023-03-29T00:55:53.076Z,4.15
2023-03-29T01:00:52.260Z,2.93
2023-03-29T01:05:48.598Z,5.28
2023-03-29T01:10:43.883Z,5.10
2023-03-29T01:15:37.296Z,2.58
2023-03-29T01:20:58.021Z,2.40
2023-03-29T01:26:14.716Z,2.90
2023-03-29T01:31:37.521Z,2.60
2023-03-29T01:36:37.705Z,3.67
2023-03-29T01:41:43.668Z,3.97
2023-03-29T01:46:46.022Z,3.17
2023-03-29T01:51:47.499Z,3.05
2023-03-29T01:56:45.238Z,5.78
2023-03-29T02:01:49.653Z,5.88
2023-03-29T02:06:42.893Z,7.18
2023-03-29T02:11:37.126Z,3.92
2023-03-29T02:16:34.880Z,2.88
2023-03-29T02:21:33.192Z,5.35
2023-03-29T02:26:29.937Z,4.15
2023-03-29T02:31:32.485Z,3.85
2023-03-29T02:36:34.715Z,6.95
2023-03-29T02:41:29.178Z,7.03
2023-03-29T02:46:21.545Z,8.40
2023-03-29T02:51:37.588Z,12.45
2023-03-29T02:56:30.952Z,5.50
2023-03-29T03:01:23.638Z,3.85
2023-03-29T03:06:16.691Z,3.83
2023-03-29T03:11:12.077Z,4.57
2023-03-29T03:16:06.651Z,4.35
2023-03-29T03:21:02.445Z,12.10
2023-03-29T03:25:55.769Z,7.93
2023-03-29T03:30:49.630Z,5.72
2023-03-29T03:35:43.276Z,10.50
2023-03-29T03:40:37.121Z,4.50
2023-03-29T03:45:31.866Z,7.22
2023-03-29T03:50:34.177Z,3.35
2023-03-29T03:55:30.752Z,3.97
2023-03-29T04:00:34.842Z,7.93
2023-03-29T04:05:51.788Z,6.93
2023-03-29T04:10:58.401Z,5.43
2023-03-29T04:16:00.950Z,4.07
2023-03-29T04:20:55.401Z,5.70
2023-03-29T04:25:54.467Z,2.95
2023-03-29T04:31:06.912Z,4.15
2023-03-29T04:36:10.589Z,4.10
2023-03-29T04:41:05.209Z,4.03
2023-03-29T04:46:10.685Z,5.55
2023-03-29T04:51:25.249Z,8.75
2023-03-29T04:56:19.856Z,4.82
2023-03-29T05:01:40.315Z,7.17
2023-03-29T05:06:34.069Z,3.30
2023-03-29T05:11:28.250Z,4.25
2023-03-29T05:16:21.096Z,2.92
2023-03-29T05:21:16.408Z,6.60
2023-03-29T05:26:14.993Z,17.60
2023-03-29T05:31:16.692Z,17.02
2023-03-29T05:36:15.952Z,10.77
2023-03-29T05:41:12.936Z,10.00
2023-03-29T05:46:41.266Z,7.57
2023-03-29T05:51:42.254Z,15.00
2023-03-29T05:56:36.195Z,7.70
2023-03-29T06:01:29.739Z,18.60
2023-03-29T06:06:32.531Z,11.77
2023-03-29T06:11:26.394Z,10.25
2023-03-29T06:16:40.161Z,14.40
2023-03-29T06:21:36.874Z,10.20
2023-03-29T06:26:31.947Z,7.78
2023-03-29T06:31:26.534Z,10.50
2023-03-29T06:36:20.721Z,6.18
2023-03-29T06:41:15.816Z,24.60
2023-03-29T06:46:27.919Z,9.38
2023-03-29T06:51:23.590Z,17.05
2023-03-29T06:56:18.081Z,8.30
2023-03-29T07:01:14.296Z,4.97
2023-03-29T07:06:21.571Z,6.53
2023-03-29T07:11:16.374Z,10.32
2023-03-29T07:16:18.939Z,8.50
2023-03-29T07:21:29.816Z,6.72
2023-03-29T07:26:28.958Z,4.22
2023-03-29T07:31:25.118Z,4.55
2023-03-29T07:36:25.363Z,3.08
2023-03-29T07:41:18.634Z,4.70
2023-03-29T07:46:14.225Z,6.20
2023-03-29T07:51:09.079Z,3.50
2023-03-29T07:56:10.404Z,4.03
2023-03-29T08:01:20.816Z,3.90
2023-03-29T08:06:32.860Z,2.92
2023-03-29T08:11:25.836Z,3.00
2023-03-29T08:16:26.398Z,3.55
2023-03-29T08:21:30.969Z,3.38
2023-03-29T08:26:24.098Z,3.42
2023-03-29T08:31:17.705Z,3.17
2023-03-29T08:36:12.723Z,7.35
2023-03-29T08:41:26.552Z,5.43
2023-03-29T08:46:42.415Z,3.63
2023-03-29T08:52:03.045Z,7.60
2023-03-29T08:57:04.275Z,8.60
2023-03-29T09:02:03.319Z,3.35
2023-03-29T09:06:58.374Z,7.63
2023-03-29T09:12:07.700Z,6.70
2023-03-29T09:17:21.672Z,3.42
2023-03-29T09:22:30.033Z,2.42
2023-03-29T09:27:33.141Z,4.80
2023-03-29T09:33:14.533Z,3.65
2023-03-29T09:38:17.933Z,4.45
2023-03-29T09:43:14.584Z,5.65
2023-03-29T09:48:18.662Z,2.85
2023-03-29T09:53:17.484Z,5.30
2023-03-29T09:58:26.452Z,2.58
2023-03-29T10:03:22.690Z,4.13
2023-03-29T10:08:30.449Z,2.45
2023-03-29T10:13:33.660Z,7.70
2023-03-29T10:18:33.712Z,3.92
2023-03-29T10:23:32.801Z,3.28
2023-03-29T10:28:26.353Z,3.97
2023-03-29T10:33:21.217Z,5.20
2023-03-29T10:38:16.996Z,4.95
2023-03-29T10:43:23.199Z,3.53
2023-03-29T10:48:18.155Z,7.97
2023-03-29T10:53:47.948Z,6.55
2023-03-29T10:59:20.647Z,7.25
2023-03-29T11:04:34.695Z,3.65
2023-03-29T11:10:09.297Z,2.65
2023-03-29T11:15:11.910Z,3.40
2023-03-29T11:20:29.308Z,3.15
2023-03-29T11:25:32.618Z,3.00
2023-03-29T11:30:33.100Z,5.85
2023-03-29T11:35:44.492Z,8.10
2023-03-29T11:41:11.673Z,5.65
2023-03-29T11:46:34.251Z,4.18
2023-03-29T11:51:34.435Z,3.70
2023-03-29T11:56:41.192Z,6.38
2023-03-29T12:01:49.855Z,7.38
2023-03-29T12:06:58.772Z,8.90
2023-03-29T12:11:56.034Z,6.75
2023-03-29T12:17:03.391Z,7.63
2023-03-29T12:21:57.516Z,4.60
2023-03-29T12:27:13.299Z,6.80
2023-03-29T12:32:34.288Z,3.10
2023-03-29T12:37:47.960Z,7.00
2023-03-29T12:43:09.373Z,3.42
2023-03-29T12:53:38.165Z,11.15
2023-03-29T12:58:40.408Z,4.75
2023-03-29T13:03:43.527Z,5.78
2023-03-29T13:08:38.003Z,18.08
2023-03-29T13:13:34.228Z,4.65
2023-03-29T13:18:42.024Z,23.43
2023-03-29T13:23:55.213Z,5.32
2023-03-29T13:29:03.718Z,9.43
2023-03-29T13:34:20.516Z,7.15
2023-03-29T13:39:25.340Z,8.85
2023-03-29T13:44:46.061Z,4.97
2023-03-29T13:49:39.492Z,9.68
2023-03-29T13:54:46.309Z,5.97
2023-03-29T14:00:05.586Z,4.72
2023-03-29T14:05:06.765Z,7.13
2023-03-29T14:10:01.395Z,5.93
2023-03-29T14:14:59.299Z,5.82
2023-03-29T14:19:53.381Z,14.73
2023-03-29T14:25:01.004Z,8.60
2023-03-29T14:29:54.918Z,7.77
2023-03-29T14:34:50.658Z,10.40
2023-03-29T14:39:44.691Z,13.50
2023-03-29T14:44:38.158Z,7.95
2023-03-29T14:49:30.982Z,9.32
2023-03-29T14:54:29.057Z,7.45
2023-03-29T14:59:27.659Z,5.33
2023-03-29T15:04:20.478Z,11.63
2023-03-29T15:09:28.982Z,5.70
2023-03-29T15:14:23.514Z,5.97
2023-03-29T15:19:19.764Z,12.50
2023-03-29T15:24:33.103Z,3.97
2023-03-29T15:29:35.496Z,9.07
2023-03-29T15:34:31.734Z,9.85
2023-03-29T15:39:25.557Z,6.22
2023-03-29T15:44:22.924Z,5.25
2023-03-29T15:49:16.682Z,12.07
2023-03-29T15:54:10.960Z,6.68
2023-03-29T15:59:07.929Z,8.05
2023-03-29T16:04:03.465Z,9.63
2023-03-29T16:08:57.941Z,10.95
2023-03-29T16:13:52.326Z,5.55
2023-03-29T16:18:46.097Z,8.07
2023-03-29T16:23:39.388Z,6.80
2023-03-29T16:28:33.497Z,10.90
2023-03-29T16:33:27.135Z,13.55
2023-03-29T16:38:22.549Z,11.13
2023-03-29T16:43:20.051Z,10.38
2023-03-29T16:48:20.253Z,12.88
2023-03-29T16:53:14.759Z,10.38
2023-03-29T16:58:08.123Z,15.70
2023-03-29T17:03:02.313Z,9.05
2023-03-29T17:07:56.453Z,13.25
2023-03-29T17:12:51.155Z,14.63
2023-03-29T17:17:44.455Z,14.55
2023-03-29T17:22:38.790Z,10.90
2023-03-29T17:27:31.849Z,20.00
2023-03-29T17:32:25.222Z,13.13
2023-03-29T17:37:18.037Z,17.33
2023-03-29T17:42:11.500Z,11.85
2023-03-29T17:47:04.981Z,13.35
2023-03-29T17:51:58.586Z,15.40
2023-03-29T17:56:51.843Z,25.85
2023-03-29T18:01:45.727Z,23.17
2023-03-29T18:06:39.380Z,22.25
2023-03-29T18:11:34.055Z,21.02
2023-03-29T18:16:27.949Z,22.63
2023-03-29T18:21:22.560Z,27.67
2023-03-29T18:26:17.211Z,31.85
2023-03-29T18:31:10.759Z,18.23
2023-03-29T18:36:09.151Z,23.55
2023-03-29T18:41:04.701Z,18.92
2023-03-29T18:45:58.160Z,21.20
2023-03-29T18:50:53.009Z,31.55
2023-03-29T18:55:46.231Z,19.73
2023-03-29T19:00:39.444Z,21.55
2023-03-29T19:05:33.138Z,18.40
2023-03-29T19:10:26.112Z,20.88
2023-03-29T19:15:19.769Z,14.40
2023-03-29T19:20:15.311Z,14.55
2023-03-29T19:25:11.467Z,23.50
2023-03-29T19:30:06.888Z,26.88
2023-03-29T19:35:00.888Z,14.27
2023-03-29T19:39:56.432Z,16.55
2023-03-29T19:44:48.617Z,26.88
2023-03-29T19:49:42.541Z,27.55
2023-03-29T19:54:36.592Z,17.38
2023-03-29T19:59:31.567Z,16.45
2023-03-29T20:04:24.725Z,19.55
2023-03-29T20:09:19.428Z,18.70
2023-03-29T20:14:12.838Z,23.70
2023-03-29T20:19:08.949Z,21.48
2023-03-29T20:24:02.786Z,20.00
2023-03-29T20:28:56.664Z,18.27
2023-03-29T20:33:49.957Z,15.13
2023-03-29T20:38:43.516Z,13.82
2023-03-29T20:43:38.598Z,13.63
2023-03-29T20:48:31.592Z,17.92
2023-03-29T20:53:25.473Z,15.57
2023-03-29T20:58:18.805Z,16.48
2023-03-29T21:03:11.472Z,22.80
2023-03-29T21:08:04.513Z,22.23
2023-03-29T21:13:02.563Z,31.83
2023-03-29T21:17:56.660Z,18.70
2023-03-29T21:22:49.483Z,14.40
2023-03-29T21:27:46.987Z,13.07
2023-03-29T21:32:39.274Z,12.10
2023-03-29T21:37:32.076Z,12.70
2023-03-29T21:42:26.400Z,20.00
2023-03-29T21:47:19.682Z,16.20
2023-03-29T21:52:12.314Z,21.95
2023-03-29T21:57:08.029Z,16.63
2023-03-29T22:02:01.051Z,13.07
2023-03-29T22:06:54.486Z,19.38
2023-03-29T22:11:48.930Z,11.93
2023-03-29T22:16:42.565Z,14.15
2023-03-29T22:21:38.321Z,11.93
2023-03-29T22:26:32.633Z,12.50
2023-03-29T22:31:28.028Z,10.95
2023-03-29T22:36:28.944Z,14.43
2023-03-29T22:41:26.121Z,8.50
2023-03-29T22:46:20.199Z,8.88
2023-03-29T22:51:14.455Z,9.02
2023-03-29T22:56:09.654Z,11.25
2023-03-29T23:01:03.900Z,9.55
2023-03-29T23:05:58.154Z,10.10
2023-03-29T23:10:52.348Z,14.55
2023-03-29T23:15:50.804Z,7.60
2023-03-29T23:20:45.267Z,10.15
2023-03-29T23:25:38.562Z,9.07
2023-03-29T23:30:32.344Z,6.95
2023-03-29T23:35:25.386Z,9.70
2023-03-29T23:40:18.632Z,11.82
2023-03-29T23:45:17.120Z,10.32
2023-03-29T23:50:13.387Z,8.93
2023-03-29T23:55:09.047Z,9.75
